Startpagina
METAR-TAF:

METAR-TAF

Vliegvelden :

Pittsburgh International Airport

Pittsburgh, Pennsylvania, Verenigde Staten

breedte: 40-30-14N, lengte: 080-15-59W, hoogte: 366 m

Actueel weer

Dit bericht is 44 minuten geleden gemaakt, om 08:51 UTC
Wind 3 kt uit het zuiden
Temperatuur -1°C
Vochtigheid 93%
Druk 1023 hPa
Zicht: 16.1 km
Weinig wolken op 11000 ft
Weinig wolken op 22000 ft

METAR: KPIT 220851Z 18003KT 10SM FEW110 FEW220 M01/M02 A3021 RMK AO2 SLP248 T10061022 50000

Tijdstip: 05:35 (09:35 UTC)

Verwachting

Dit bericht is 38 minuten geleden gemaakt, om 08:57 UTC
Verwachting geldig van 22 om 09 UTC tot 23 om 12 UTC
Wind 3 kt uit het zuidzuidwesten
Zicht: 10 km
Verspreide wolken op 10000 ft
Van 22 om 1500 UTC
Wind 10 kt uit het zuidwesten
Zicht: 10 km
Verspreide wolken op 20000 ft
Van 22 om 2100 UTC
Wind 8 kt uit het zuidwesten
Zicht: 10 km
Gebroken wolken op 6000 ft

TAF: KPIT 220857Z 2209/2312 20003KT P6SM SCT100 FM221500 22010KT P6SM SCT200 FM222100 22008KT P6SM BKN060

Waarnemingen en weersverwachtingen van meer dan 4000 vliegvelden (METAR en TAF).

De beschikbare stations zijn de gele en rode punten op de kaart.

Ga met uw muis naar het station om de naam te zien.

Klik dan om waarnemingen en weersverwachtingen te zien.

kaart wijzigen: klik op de groene knoppen met een zwart kruis om in te zoomen, op de groene knop met een streepje om uit te zoomen of op de groene pijlen voor aangrenzende kaarten.


METAR-TAF: